Südanflug-Wetter

Südanflüge sind sowohl am Euroairport Basel-Mulhouse-Freiburg als auch am Flughafen Unique Zürich ein Thema für die Anwohner. In Basel hängen Südanflüge von den Windverhältnissen ab. Für den Euroairport Basel-Mulhouse-Freiburg bereitet MeteoNews deshalb aktuelle Winddaten auf, die direkt auf der Homepage des Flughafens eingebunden werden. Angaben zum Flughafen Zürich finden Sie hier.

In Zürich sind Südanflüge auf die Piste 34 möglich, wenn die horizontale Sichtweite mindestens 750 m beträgt und die Wolkenuntergrenze im Anflugsektor nicht tiefer als 300 Fuss (knapp 100 m) liegt (diese Werte gelten seit dem 1. November 2004).

Prognose für Südanflüge

Am Freitag sind Südanflüge möglich.
(Prognose ohne Gewähr. Die Vorhersage wird mehrmals täglich aktualisiert. Verantwortlicher Meteorologe: Sharon Satz, 21.09.2017 14:05)

Analyse der letzten METAR-Messungen

Unser Tool wertet die letzten 20 offiziellen Wettermeldungen (METAR) des Flughafens Zürich aus und entscheidet aufgrund der beiden Werte für Sichtweite und Ceiling (Hauptwolkenuntergrenze), ob Südanflüge nach obiger Definition möglich wären. Allerdings repräsentiert der Wert für die Wolkenuntergrenze in der METAR-Meldung nicht die Bewölkung im Anflugsektor sondern generell um den Flughafen. Da über die Bewölkung im Anflugsektor kurzfristig aufgrund von Beobachtungen des Towers und von Piloten entschieden wird, kann die Angabe unseres Tools in gewissen Fällen von den realen Entscheiden der Flugsicherung abweichen.

Südanflüge Datum Uhrzeit Sichtweite Ceiling Vollständige METAR-Meldung
möglich 2017-09-22 01:50:00 > 10 km LSZH 212350Z 00000KT 9999 MIFG NSC 06/06 Q1021 NOSIG
möglich 2017-09-22 01:20:00 > 10 km LSZH 212320Z 00000KT 9999 MIFG NSC 07/06 Q1021 NOSIG
möglich 2017-09-22 00:50:00 > 10 km LSZH 212250Z VRB01KT CAVOK 07/06 Q1021 NOSIG
möglich 2017-09-22 00:20:00 > 10 km LSZH 212220Z VRB01KT CAVOK 06/06 Q1021 NOSIG
möglich 2017-09-21 23:50:00 > 10 km LSZH 212150Z 04002KT CAVOK 08/07 Q1020 NOSIG
möglich 2017-09-21 23:20:00 > 10 km LSZH 212120Z 00000KT CAVOK 08/06 Q1020 NOSIG
möglich 2017-09-21 22:50:00 > 10 km LSZH 212050Z 00000KT CAVOK 08/07 Q1020 NOSIG
möglich 2017-09-21 22:20:00 > 10 km LSZH 212020Z 00000KT CAVOK 08/06 Q1020 NOSIG
möglich 2017-09-21 21:50:00 > 10 km LSZH 211950Z 00000KT CAVOK 09/07 Q1020 NOSIG
möglich 2017-09-21 21:20:00 > 10 km LSZH 211920Z VRB01KT CAVOK 10/07 Q1020 NOSIG
möglich 2017-09-21 20:50:00 > 10 km LSZH 211850Z 00000KT CAVOK 11/07 Q1020 NOSIG
möglich 2017-09-21 20:20:00 > 10 km LSZH 211820Z VRB02KT CAVOK 13/07 Q1020 NOSIG
möglich 2017-09-21 19:50:00 > 10 km LSZH 211750Z VRB01KT CAVOK 13/07 Q1019 NOSIG
möglich 2017-09-21 19:20:00 > 10 km LSZH 211720Z VRB01KT CAVOK 16/07 Q1019 NOSIG
möglich 2017-09-21 18:50:00 > 10 km LSZH 211650Z 03003KT 350V060 CAVOK 16/06 Q1019 NOSIG
möglich 2017-09-21 18:20:00 > 10 km LSZH 211620Z 04005KT 010V080 CAVOK 17/06 Q1019 NOSIG
möglich 2017-09-21 17:50:00 > 10 km LSZH 211550Z 04006KT 010V070 CAVOK 17/06 Q1019 NOSIG
möglich 2017-09-21 17:20:00 > 10 km LSZH 211520Z 04006KT 350V100 CAVOK 18/06 Q1019 NOSIG
möglich 2017-09-21 16:50:00 > 10 km LSZH 211450Z 04007KT 010V080 CAVOK 18/05 Q1019 NOSIG
möglich 2017-09-21 16:20:00 > 10 km LSZH 211420Z 04007KT 360V090 CAVOK 18/05 Q1020 NOSIG